sensor_id;sensor_type;location;lat;lon;timestamp;P1;durP1;ratioP1;P2;durP2;ratioP2
48052;SDS011;33824;51.600;5.718;2022-08-19T00:00:44;23.08;;;17.13;;
48052;SDS011;33824;51.600;5.718;2022-08-19T00:03:09;30.77;;;18.25;;
48052;SDS011;33824;51.600;5.718;2022-08-19T00:05:35;25.23;;;17.77;;
48052;SDS011;33824;51.600;5.718;2022-08-19T00:08:01;28.23;;;18.23;;
48052;SDS011;33824;51.600;5.718;2022-08-19T00:10:27;26.55;;;18.25;;
48052;SDS011;33824;51.600;5.718;2022-08-19T00:12:53;24.08;;;16.70;;
48052;SDS011;33824;51.600;5.718;2022-08-19T00:15:19;23.10;;;16.67;;
48052;SDS011;33824;51.600;5.718;2022-08-19T00:17:46;23.42;;;15.95;;
48052;SDS011;33824;51.600;5.718;2022-08-19T00:20:14;22.98;;;16.50;;
48052;SDS011;33824;51.600;5.718;2022-08-19T00:22:43;27.35;;;17.10;;
48052;SDS011;33824;51.600;5.718;2022-08-19T00:25:09;28.40;;;17.27;;
48052;SDS011;33824;51.600;5.718;2022-08-19T00:27:35;21.40;;;14.80;;
48052;SDS011;33824;51.600;5.718;2022-08-19T00:30:00;24.23;;;15.35;;
48052;SDS011;33824;51.600;5.718;2022-08-19T00:32:28;23.45;;;15.80;;
48052;SDS011;33824;51.600;5.718;2022-08-19T00:34:54;23.35;;;15.68;;
48052;SDS011;33824;51.600;5.718;2022-08-19T00:37:20;21.88;;;16.02;;
48052;SDS011;33824;51.600;5.718;2022-08-19T00:39:48;18.83;;;14.10;;
48052;SDS011;33824;51.600;5.718;2022-08-19T00:42:16;20.15;;;15.73;;
48052;SDS011;33824;51.600;5.718;2022-08-19T00:44:42;21.88;;;16.90;;
48052;SDS011;33824;51.600;5.718;2022-08-19T00:47:08;27.70;;;19.55;;
48052;SDS011;33824;51.600;5.718;2022-08-19T00:49:35;27.85;;;19.58;;
48052;SDS011;33824;51.600;5.718;2022-08-19T00:52:15;24.55;;;17.52;;
48052;SDS011;33824;51.600;5.718;2022-08-19T00:54:45;25.70;;;17.42;;
48052;SDS011;33824;51.600;5.718;2022-08-19T00:57:14;22.77;;;17.48;;
48052;SDS011;33824;51.600;5.718;2022-08-19T00:59:42;25.38;;;18.52;;
48052;SDS011;33824;51.600;5.718;2022-08-19T01:02:11;22.40;;;16.70;;
48052;SDS011;33824;51.600;5.718;2022-08-19T01:04:37;40.55;;;18.77;;
48052;SDS011;33824;51.600;5.718;2022-08-19T01:07:03;23.98;;;17.10;;
48052;SDS011;33824;51.600;5.718;2022-08-19T01:09:29;26.80;;;18.83;;
48052;SDS011;33824;51.600;5.718;2022-08-19T01:11:55;25.85;;;17.55;;
48052;SDS011;33824;51.600;5.718;2022-08-19T01:14:21;26.67;;;17.65;;
48052;SDS011;33824;51.600;5.718;2022-08-19T01:16:47;23.90;;;17.30;;
48052;SDS011;33824;51.600;5.718;2022-08-19T01:19:24;25.67;;;17.35;;
48052;SDS011;33824;51.600;5.718;2022-08-19T01:24:45;25.63;;;16.20;;
48052;SDS011;33824;51.600;5.718;2022-08-19T01:27:10;23.65;;;17.08;;
48052;SDS011;33824;51.600;5.718;2022-08-19T01:29:38;27.45;;;15.80;;
48052;SDS011;33824;51.600;5.718;2022-08-19T01:32:05;22.48;;;16.27;;
48052;SDS011;33824;51.600;5.718;2022-08-19T01:34:33;22.55;;;16.42;;
48052;SDS011;33824;51.600;5.718;2022-08-19T01:36:59;21.20;;;15.90;;
48052;SDS011;33824;51.600;5.718;2022-08-19T01:39:26;23.63;;;17.02;;
48052;SDS011;33824;51.600;5.718;2022-08-19T01:41:53;23.13;;;15.63;;
48052;SDS011;33824;51.600;5.718;2022-08-19T01:44:20;20.73;;;15.43;;
48052;SDS011;33824;51.600;5.718;2022-08-19T01:46:49;24.80;;;15.90;;
48052;SDS011;33824;51.600;5.718;2022-08-19T01:49:17;20.35;;;14.85;;
48052;SDS011;33824;51.600;5.718;2022-08-19T01:51:44;22.08;;;15.35;;
48052;SDS011;33824;51.600;5.718;2022-08-19T01:54:11;21.60;;;15.23;;
48052;SDS011;33824;51.600;5.718;2022-08-19T01:56:40;23.80;;;15.70;;
48052;SDS011;33824;51.600;5.718;2022-08-19T01:59:13;23.88;;;15.15;;
48052;SDS011;33824;51.600;5.718;2022-08-19T02:01:44;22.75;;;15.32;;
48052;SDS011;33824;51.600;5.718;2022-08-19T02:04:09;20.13;;;14.18;;
48052;SDS011;33824;51.600;5.718;2022-08-19T02:06:35;21.88;;;14.73;;
48052;SDS011;33824;51.600;5.718;2022-08-19T02:09:03;21.85;;;15.85;;
48052;SDS011;33824;51.600;5.718;2022-08-19T02:11:30;23.63;;;16.77;;
48052;SDS011;33824;51.600;5.718;2022-08-19T02:13:59;20.70;;;15.27;;
48052;SDS011;33824;51.600;5.718;2022-08-19T02:16:27;22.00;;;15.90;;
48052;SDS011;33824;51.600;5.718;2022-08-19T02:18:53;23.67;;;16.60;;
48052;SDS011;33824;51.600;5.718;2022-08-19T02:21:21;24.70;;;16.75;;
48052;SDS011;33824;51.600;5.718;2022-08-19T02:23:49;21.70;;;16.25;;
48052;SDS011;33824;51.600;5.718;2022-08-19T02:26:15;22.50;;;16.35;;
48052;SDS011;33824;51.600;5.718;2022-08-19T02:28:41;24.25;;;16.92;;
48052;SDS011;33824;51.600;5.718;2022-08-19T02:31:11;26.33;;;17.67;;
48052;SDS011;33824;51.600;5.718;2022-08-19T02:33:40;25.27;;;17.73;;
48052;SDS011;33824;51.600;5.718;2022-08-19T02:36:06;25.27;;;15.95;;
48052;SDS011;33824;51.600;5.718;2022-08-19T02:38:33;29.23;;;17.35;;
48052;SDS011;33824;51.600;5.718;2022-08-19T02:41:01;22.88;;;17.45;;
48052;SDS011;33824;51.600;5.718;2022-08-19T02:43:28;25.58;;;18.25;;
48052;SDS011;33824;51.600;5.718;2022-08-19T02:45:55;26.63;;;17.00;;
48052;SDS011;33824;51.600;5.718;2022-08-19T02:48:21;24.23;;;17.52;;
48052;SDS011;33824;51.600;5.718;2022-08-19T02:50:50;21.10;;;15.18;;
48052;SDS011;33824;51.600;5.718;2022-08-19T02:53:23;24.10;;;16.60;;
48052;SDS011;33824;51.600;5.718;2022-08-19T02:55:50;22.10;;;16.40;;
48052;SDS011;33824;51.600;5.718;2022-08-19T02:58:16;24.60;;;16.70;;
48052;SDS011;33824;51.600;5.718;2022-08-19T03:00:45;23.10;;;15.93;;
48052;SDS011;33824;51.600;5.718;2022-08-19T03:03:13;26.55;;;17.25;;
48052;SDS011;33824;51.600;5.718;2022-08-19T03:05:39;23.27;;;16.42;;
48052;SDS011;33824;51.600;5.718;2022-08-19T03:08:05;21.90;;;15.80;;
48052;SDS011;33824;51.600;5.718;2022-08-19T03:10:32;23.52;;;15.45;;
48052;SDS011;33824;51.600;5.718;2022-08-19T03:12:57;21.33;;;14.38;;
48052;SDS011;33824;51.600;5.718;2022-08-19T03:15:23;20.67;;;14.38;;
48052;SDS011;33824;51.600;5.718;2022-08-19T03:17:49;22.70;;;14.80;;
48052;SDS011;33824;51.600;5.718;2022-08-19T03:20:14;20.70;;;14.20;;
48052;SDS011;33824;51.600;5.718;2022-08-19T03:22:40;20.92;;;13.63;;
48052;SDS011;33824;51.600;5.718;2022-08-19T03:25:05;18.77;;;13.23;;
48052;SDS011;33824;51.600;5.718;2022-08-19T03:27:31;22.08;;;14.75;;
48052;SDS011;33824;51.600;5.718;2022-08-19T03:29:58;24.02;;;15.35;;
48052;SDS011;33824;51.600;5.718;2022-08-19T03:32:24;21.58;;;15.65;;
48052;SDS011;33824;51.600;5.718;2022-08-19T03:34:49;23.13;;;15.05;;
48052;SDS011;33824;51.600;5.718;2022-08-19T03:37:16;25.95;;;15.75;;
48052;SDS011;33824;51.600;5.718;2022-08-19T03:39:41;20.67;;;14.73;;
48052;SDS011;33824;51.600;5.718;2022-08-19T03:42:08;25.15;;;15.75;;
48052;SDS011;33824;51.600;5.718;2022-08-19T03:44:34;23.85;;;15.60;;
48052;SDS011;33824;51.600;5.718;2022-08-19T03:47:02;22.58;;;15.43;;
48052;SDS011;33824;51.600;5.718;2022-08-19T03:49:29;23.15;;;15.82;;
48052;SDS011;33824;51.600;5.718;2022-08-19T03:51:57;26.73;;;16.52;;
48052;SDS011;33824;51.600;5.718;2022-08-19T03:54:25;22.55;;;15.60;;
48052;SDS011;33824;51.600;5.718;2022-08-19T03:56:52;25.90;;;15.35;;
48052;SDS011;33824;51.600;5.718;2022-08-19T03:59:21;25.75;;;15.75;;
48052;SDS011;33824;51.600;5.718;2022-08-19T04:01:51;25.63;;;16.55;;
48052;SDS011;33824;51.600;5.718;2022-08-19T04:04:18;23.95;;;16.15;;
48052;SDS011;33824;51.600;5.718;2022-08-19T04:06:44;24.98;;;15.93;;
48052;SDS011;33824;51.600;5.718;2022-08-19T04:09:10;27.85;;;17.80;;
48052;SDS011;33824;51.600;5.718;2022-08-19T04:11:40;23.70;;;16.40;;
48052;SDS011;33824;51.600;5.718;2022-08-19T04:14:09;23.23;;;16.10;;
48052;SDS011;33824;51.600;5.718;2022-08-19T04:16:35;23.85;;;13.52;;
48052;SDS011;33824;51.600;5.718;2022-08-19T04:19:02;19.13;;;12.38;;
48052;SDS011;33824;51.600;5.718;2022-08-19T04:21:29;17.48;;;12.32;;
48052;SDS011;33824;51.600;5.718;2022-08-19T04:23:55;20.38;;;14.43;;
48052;SDS011;33824;51.600;5.718;2022-08-19T04:26:25;22.75;;;14.80;;
48052;SDS011;33824;51.600;5.718;2022-08-19T04:28:53;31.00;;;16.10;;
48052;SDS011;33824;51.600;5.718;2022-08-19T04:31:21;21.98;;;14.57;;
48052;SDS011;33824;51.600;5.718;2022-08-19T04:33:58;24.10;;;14.60;;
48052;SDS011;33824;51.600;5.718;2022-08-19T04:36:29;22.77;;;15.02;;
48052;SDS011;33824;51.600;5.718;2022-08-19T04:38:57;24.73;;;16.90;;
48052;SDS011;33824;51.600;5.718;2022-08-19T04:41:24;28.33;;;16.30;;
48052;SDS011;33824;51.600;5.718;2022-08-19T04:44:09;31.65;;;18.25;;
48052;SDS011;33824;51.600;5.718;2022-08-19T04:46:36;27.55;;;18.25;;
48052;SDS011;33824;51.600;5.718;2022-08-19T04:49:03;25.90;;;17.25;;
48052;SDS011;33824;51.600;5.718;2022-08-19T04:51:31;26.25;;;17.25;;
48052;SDS011;33824;51.600;5.718;2022-08-19T04:53:58;26.45;;;17.55;;
48052;SDS011;33824;51.600;5.718;2022-08-19T04:56:25;24.63;;;15.95;;
48052;SDS011;33824;51.600;5.718;2022-08-19T04:58:52;27.80;;;16.67;;
48052;SDS011;33824;51.600;5.718;2022-08-19T05:01:22;32.65;;;18.33;;
48052;SDS011;33824;51.600;5.718;2022-08-19T05:03:58;27.50;;;17.98;;
48052;SDS011;33824;51.600;5.718;2022-08-19T05:06:25;25.98;;;17.40;;
48052;SDS011;33824;51.600;5.718;2022-08-19T05:08:51;26.63;;;17.58;;
48052;SDS011;33824;51.600;5.718;2022-08-19T05:11:22;25.90;;;17.20;;
48052;SDS011;33824;51.600;5.718;2022-08-19T05:13:50;28.38;;;18.70;;
48052;SDS011;33824;51.600;5.718;2022-08-19T05:16:18;31.83;;;18.90;;
48052;SDS011;33824;51.600;5.718;2022-08-19T05:18:45;29.38;;;19.23;;
48052;SDS011;33824;51.600;5.718;2022-08-19T05:21:30;28.92;;;19.10;;
48052;SDS011;33824;51.600;5.718;2022-08-19T05:24:16;30.55;;;18.70;;
48052;SDS011;33824;51.600;5.718;2022-08-19T05:26:43;31.45;;;20.13;;
48052;SDS011;33824;51.600;5.718;2022-08-19T05:29:11;32.67;;;21.35;;
48052;SDS011;33824;51.600;5.718;2022-08-19T05:31:41;31.92;;;19.80;;
48052;SDS011;33824;51.600;5.718;2022-08-19T05:34:07;35.10;;;22.10;;
48052;SDS011;33824;51.600;5.718;2022-08-19T05:36:36;31.33;;;21.45;;
48052;SDS011;33824;51.600;5.718;2022-08-19T05:39:07;32.70;;;20.50;;
48052;SDS011;33824;51.600;5.718;2022-08-19T05:41:36;31.27;;;20.42;;
48052;SDS011;33824;51.600;5.718;2022-08-19T05:44:06;34.90;;;21.88;;
48052;SDS011;33824;51.600;5.718;2022-08-19T05:46:35;36.88;;;23.27;;
48052;SDS011;33824;51.600;5.718;2022-08-19T05:49:03;38.28;;;24.17;;
48052;SDS011;33824;51.600;5.718;2022-08-19T05:51:29;41.33;;;23.95;;
48052;SDS011;33824;51.600;5.718;2022-08-19T05:53:55;40.13;;;24.33;;
48052;SDS011;33824;51.600;5.718;2022-08-19T05:56:20;43.35;;;25.13;;
48052;SDS011;33824;51.600;5.718;2022-08-19T05:58:46;43.28;;;26.45;;
48052;SDS011;33824;51.600;5.718;2022-08-19T06:01:13;45.08;;;25.65;;
48052;SDS011;33824;51.600;5.718;2022-08-19T06:03:42;48.75;;;27.20;;
48052;SDS011;33824;51.600;5.718;2022-08-19T06:06:12;44.97;;;26.90;;
48052;SDS011;33824;51.600;5.718;2022-08-19T06:08:39;43.20;;;26.40;;
48052;SDS011;33824;51.600;5.718;2022-08-19T06:11:15;42.65;;;26.23;;
48052;SDS011;33824;51.600;5.718;2022-08-19T06:13:46;46.27;;;27.27;;
48052;SDS011;33824;51.600;5.718;2022-08-19T06:16:16;45.97;;;26.23;;
48052;SDS011;33824;51.600;5.718;2022-08-19T06:18:54;50.47;;;27.83;;
48052;SDS011;33824;51.600;5.718;2022-08-19T06:21:22;47.30;;;27.50;;
48052;SDS011;33824;51.600;5.718;2022-08-19T06:23:50;47.65;;;27.77;;
48052;SDS011;33824;51.600;5.718;2022-08-19T06:26:17;52.05;;;29.35;;
48052;SDS011;33824;51.600;5.718;2022-08-19T06:28:44;52.83;;;29.55;;
48052;SDS011;33824;51.600;5.718;2022-08-19T06:31:18;50.35;;;29.05;;
48052;SDS011;33824;51.600;5.718;2022-08-19T06:33:49;51.63;;;27.77;;
48052;SDS011;33824;51.600;5.718;2022-08-19T06:38:59;55.13;;;27.45;;
48052;SDS011;33824;51.600;5.718;2022-08-19T06:41:27;50.05;;;28.95;;
48052;SDS011;33824;51.600;5.718;2022-08-19T06:43:53;48.95;;;27.08;;
48052;SDS011;33824;51.600;5.718;2022-08-19T06:46:23;50.50;;;27.15;;
48052;SDS011;33824;51.600;5.718;2022-08-19T06:48:49;51.67;;;27.30;;
48052;SDS011;33824;51.600;5.718;2022-08-19T06:51:16;48.40;;;27.95;;
48052;SDS011;33824;51.600;5.718;2022-08-19T06:53:49;49.33;;;26.27;;
48052;SDS011;33824;51.600;5.718;2022-08-19T06:56:21;50.50;;;27.50;;
48052;SDS011;33824;51.600;5.718;2022-08-19T06:58:50;49.28;;;27.80;;
48052;SDS011;33824;51.600;5.718;2022-08-19T07:01:18;50.40;;;26.65;;
48052;SDS011;33824;51.600;5.718;2022-08-19T07:03:45;52.75;;;27.25;;
48052;SDS011;33824;51.600;5.718;2022-08-19T07:06:12;47.65;;;26.27;;
48052;SDS011;33824;51.600;5.718;2022-08-19T07:08:42;48.93;;;24.83;;
48052;SDS011;33824;51.600;5.718;2022-08-19T07:11:10;51.08;;;26.50;;
48052;SDS011;33824;51.600;5.718;2022-08-19T07:13:38;46.03;;;24.75;;
48052;SDS011;33824;51.600;5.718;2022-08-19T07:16:07;44.42;;;26.17;;
48052;SDS011;33824;51.600;5.718;2022-08-19T07:18:34;44.83;;;25.08;;
48052;SDS011;33824;51.600;5.718;2022-08-19T07:21:07;46.05;;;25.35;;
48052;SDS011;33824;51.600;5.718;2022-08-19T07:23:34;46.45;;;24.92;;
48052;SDS011;33824;51.600;5.718;2022-08-19T07:26:37;43.13;;;24.17;;
48052;SDS011;33824;51.600;5.718;2022-08-19T07:28:54;43.53;;;24.70;;
48052;SDS011;33824;51.600;5.718;2022-08-19T07:31:21;46.85;;;24.30;;
48052;SDS011;33824;51.600;5.718;2022-08-19T07:33:49;40.70;;;23.15;;
48052;SDS011;33824;51.600;5.718;2022-08-19T07:36:17;42.83;;;22.45;;
48052;SDS011;33824;51.600;5.718;2022-08-19T07:38:47;39.90;;;23.15;;
48052;SDS011;33824;51.600;5.718;2022-08-19T07:41:15;44.13;;;23.27;;
48052;SDS011;33824;51.600;5.718;2022-08-19T07:43:43;41.50;;;21.23;;
48052;SDS011;33824;51.600;5.718;2022-08-19T07:46:09;42.55;;;22.35;;
48052;SDS011;33824;51.600;5.718;2022-08-19T07:48:35;39.78;;;22.17;;
48052;SDS011;33824;51.600;5.718;2022-08-19T07:51:03;36.80;;;21.33;;
48052;SDS011;33824;51.600;5.718;2022-08-19T07:53:30;34.45;;;20.23;;
48052;SDS011;33824;51.600;5.718;2022-08-19T07:55:58;40.17;;;20.77;;
48052;SDS011;33824;51.600;5.718;2022-08-19T07:58:26;34.70;;;20.63;;
48052;SDS011;33824;51.600;5.718;2022-08-19T08:00:53;34.40;;;20.10;;
48052;SDS011;33824;51.600;5.718;2022-08-19T08:03:19;36.67;;;20.75;;
48052;SDS011;33824;51.600;5.718;2022-08-19T08:06:06;34.08;;;19.20;;
48052;SDS011;33824;51.600;5.718;2022-08-19T08:08:51;36.97;;;19.42;;
48052;SDS011;33824;51.600;5.718;2022-08-19T08:11:35;30.45;;;18.58;;
48052;SDS011;33824;51.600;5.718;2022-08-19T08:14:01;32.80;;;18.67;;
48052;SDS011;33824;51.600;5.718;2022-08-19T08:16:26;33.65;;;17.27;;
48052;SDS011;33824;51.600;5.718;2022-08-19T08:18:55;33.72;;;18.08;;
48052;SDS011;33824;51.600;5.718;2022-08-19T08:21:20;33.40;;;16.98;;
48052;SDS011;33824;51.600;5.718;2022-08-19T08:23:46;33.80;;;18.25;;
48052;SDS011;33824;51.600;5.718;2022-08-19T08:26:11;35.42;;;18.38;;
48052;SDS011;33824;51.600;5.718;2022-08-19T08:28:38;34.47;;;18.85;;
48052;SDS011;33824;51.600;5.718;2022-08-19T08:31:03;34.17;;;17.95;;
48052;SDS011;33824;51.600;5.718;2022-08-19T08:33:29;30.48;;;17.80;;
48052;SDS011;33824;51.600;5.718;2022-08-19T08:35:55;32.50;;;17.35;;
48052;SDS011;33824;51.600;5.718;2022-08-19T08:38:21;25.15;;;15.50;;
48052;SDS011;33824;51.600;5.718;2022-08-19T08:40:49;31.00;;;15.98;;
48052;SDS011;33824;51.600;5.718;2022-08-19T08:43:22;30.65;;;17.27;;
48052;SDS011;33824;51.600;5.718;2022-08-19T08:46:34;28.70;;;16.42;;
48052;SDS011;33824;51.600;5.718;2022-08-19T08:48:51;24.58;;;15.30;;
48052;SDS011;33824;51.600;5.718;2022-08-19T08:51:26;27.65;;;16.20;;
48052;SDS011;33824;51.600;5.718;2022-08-19T08:53:58;29.63;;;14.07;;
48052;SDS011;33824;51.600;5.718;2022-08-19T08:56:24;25.92;;;14.93;;
48052;SDS011;33824;51.600;5.718;2022-08-19T09:04:07;22.42;;;14.25;;
48052;SDS011;33824;51.600;5.718;2022-08-19T09:06:38;23.48;;;13.73;;
48052;SDS011;33824;51.600;5.718;2022-08-19T09:09:16;20.65;;;14.48;;
48052;SDS011;33824;51.600;5.718;2022-08-19T09:11:55;22.70;;;14.95;;
48052;SDS011;33824;51.600;5.718;2022-08-19T09:14:43;22.27;;;14.27;;
48052;SDS011;33824;51.600;5.718;2022-08-19T09:17:13;23.75;;;13.50;;
48052;SDS011;33824;51.600;5.718;2022-08-19T09:19:50;25.92;;;16.38;;
48052;SDS011;33824;51.600;5.718;2022-08-19T09:22:31;27.63;;;16.00;;
48052;SDS011;33824;51.600;5.718;2022-08-19T09:24:57;23.85;;;16.38;;
48052;SDS011;33824;51.600;5.718;2022-08-19T09:27:23;26.13;;;18.77;;
48052;SDS011;33824;51.600;5.718;2022-08-19T09:29:50;28.17;;;18.50;;
48052;SDS011;33824;51.600;5.718;2022-08-19T09:32:16;32.97;;;20.98;;
48052;SDS011;33824;51.600;5.718;2022-08-19T09:34:43;30.58;;;20.75;;
48052;SDS011;33824;51.600;5.718;2022-08-19T09:37:09;27.90;;;19.80;;
48052;SDS011;33824;51.600;5.718;2022-08-19T09:39:35;32.70;;;21.10;;
48052;SDS011;33824;51.600;5.718;2022-08-19T09:42:00;33.22;;;21.15;;
48052;SDS011;33824;51.600;5.718;2022-08-19T09:44:28;30.30;;;19.75;;
48052;SDS011;33824;51.600;5.718;2022-08-19T09:46:54;30.88;;;16.67;;
48052;SDS011;33824;51.600;5.718;2022-08-19T09:49:21;28.85;;;18.13;;
48052;SDS011;33824;51.600;5.718;2022-08-19T09:51:50;29.35;;;19.02;;
48052;SDS011;33824;51.600;5.718;2022-08-19T09:54:17;36.00;;;21.40;;
48052;SDS011;33824;51.600;5.718;2022-08-19T09:56:43;27.02;;;19.25;;
48052;SDS011;33824;51.600;5.718;2022-08-19T09:59:09;26.88;;;18.73;;
48052;SDS011;33824;51.600;5.718;2022-08-19T10:01:37;27.23;;;19.20;;
48052;SDS011;33824;51.600;5.718;2022-08-19T10:04:03;27.60;;;18.17;;
48052;SDS011;33824;51.600;5.718;2022-08-19T10:06:36;27.77;;;17.27;;
48052;SDS011;33824;51.600;5.718;2022-08-19T10:09:03;24.63;;;16.38;;
48052;SDS011;33824;51.600;5.718;2022-08-19T10:11:32;21.95;;;16.05;;
48052;SDS011;33824;51.600;5.718;2022-08-19T10:13:58;25.52;;;16.58;;
48052;SDS011;33824;51.600;5.718;2022-08-19T10:16:26;24.40;;;15.35;;
48052;SDS011;33824;51.600;5.718;2022-08-19T10:18:52;26.33;;;16.05;;
48052;SDS011;33824;51.600;5.718;2022-08-19T10:21:20;24.55;;;15.32;;
48052;SDS011;33824;51.600;5.718;2022-08-19T10:23:52;24.63;;;15.43;;
48052;SDS011;33824;51.600;5.718;2022-08-19T10:26:20;28.88;;;16.90;;
48052;SDS011;33824;51.600;5.718;2022-08-19T10:28:48;29.00;;;16.55;;
48052;SDS011;33824;51.600;5.718;2022-08-19T10:31:16;24.35;;;15.82;;
48052;SDS011;33824;51.600;5.718;2022-08-19T10:33:45;25.38;;;16.35;;
48052;SDS011;33824;51.600;5.718;2022-08-19T10:36:14;27.65;;;17.25;;
48052;SDS011;33824;51.600;5.718;2022-08-19T10:38:43;27.02;;;16.65;;
48052;SDS011;33824;51.600;5.718;2022-08-19T10:41:15;23.92;;;16.80;;
48052;SDS011;33824;51.600;5.718;2022-08-19T10:43:42;26.88;;;18.33;;
48052;SDS011;33824;51.600;5.718;2022-08-19T10:46:11;30.35;;;18.17;;
48052;SDS011;33824;51.600;5.718;2022-08-19T10:48:39;47.92;;;19.45;;
48052;SDS011;33824;51.600;5.718;2022-08-19T10:51:06;33.97;;;18.50;;
48052;SDS011;33824;51.600;5.718;2022-08-19T10:53:50;28.20;;;16.35;;
48052;SDS011;33824;51.600;5.718;2022-08-19T10:56:16;27.85;;;17.17;;
48052;SDS011;33824;51.600;5.718;2022-08-19T10:59:02;30.27;;;18.02;;
48052;SDS011;33824;51.600;5.718;2022-08-19T11:01:29;27.65;;;17.65;;
48052;SDS011;33824;51.600;5.718;2022-08-19T11:03:56;25.33;;;16.17;;
48052;SDS011;33824;51.600;5.718;2022-08-19T11:06:22;26.40;;;18.02;;
48052;SDS011;33824;51.600;5.718;2022-08-19T11:08:50;31.77;;;19.85;;
48052;SDS011;33824;51.600;5.718;2022-08-19T11:11:16;29.55;;;17.90;;
48052;SDS011;33824;51.600;5.718;2022-08-19T11:13:42;35.40;;;20.35;;
48052;SDS011;33824;51.600;5.718;2022-08-19T11:16:18;28.85;;;18.80;;
48052;SDS011;33824;51.600;5.718;2022-08-19T11:18:46;26.75;;;16.25;;
48052;SDS011;33824;51.600;5.718;2022-08-19T11:21:25;27.40;;;15.00;;
48052;SDS011;33824;51.600;5.718;2022-08-19T11:23:53;25.50;;;16.25;;
48052;SDS011;33824;51.600;5.718;2022-08-19T11:26:21;31.88;;;16.40;;
48052;SDS011;33824;51.600;5.718;2022-08-19T11:28:47;26.55;;;16.55;;
48052;SDS011;33824;51.600;5.718;2022-08-19T11:31:15;28.33;;;17.25;;
48052;SDS011;33824;51.600;5.718;2022-08-19T11:33:45;23.40;;;16.42;;
48052;SDS011;33824;51.600;5.718;2022-08-19T11:36:11;31.17;;;17.73;;
48052;SDS011;33824;51.600;5.718;2022-08-19T11:38:38;29.52;;;17.73;;
48052;SDS011;33824;51.600;5.718;2022-08-19T11:41:05;28.40;;;16.92;;
48052;SDS011;33824;51.600;5.718;2022-08-19T11:43:35;30.95;;;17.70;;
48052;SDS011;33824;51.600;5.718;2022-08-19T11:46:08;23.70;;;16.55;;
48052;SDS011;33824;51.600;5.718;2022-08-19T11:48:35;31.60;;;17.63;;
48052;SDS011;33824;51.600;5.718;2022-08-19T11:51:13;28.35;;;16.48;;
48052;SDS011;33824;51.600;5.718;2022-08-19T11:53:41;26.98;;;16.83;;
48052;SDS011;33824;51.600;5.718;2022-08-19T11:56:07;22.77;;;15.15;;
48052;SDS011;33824;51.600;5.718;2022-08-19T11:58:34;20.73;;;14.40;;
48052;SDS011;33824;51.600;5.718;2022-08-19T12:01:00;24.38;;;15.43;;
48052;SDS011;33824;51.600;5.718;2022-08-19T12:03:25;28.17;;;16.58;;
48052;SDS011;33824;51.600;5.718;2022-08-19T12:05:53;31.92;;;16.20;;
48052;SDS011;33824;51.600;5.718;2022-08-19T12:08:18;24.45;;;15.77;;
48052;SDS011;33824;51.600;5.718;2022-08-19T12:10:44;25.85;;;17.27;;
48052;SDS011;33824;51.600;5.718;2022-08-19T12:13:11;26.30;;;17.30;;
48052;SDS011;33824;51.600;5.718;2022-08-19T12:15:40;21.38;;;14.02;;
48052;SDS011;33824;51.600;5.718;2022-08-19T12:18:06;18.45;;;12.95;;
48052;SDS011;33824;51.600;5.718;2022-08-19T12:20:34;18.13;;;10.18;;
48052;SDS011;33824;51.600;5.718;2022-08-19T12:23:01;15.30;;;9.07;;
48052;SDS011;33824;51.600;5.718;2022-08-19T12:25:27;12.40;;;7.25;;
48052;SDS011;33824;51.600;5.718;2022-08-19T12:27:52;17.38;;;11.00;;
48052;SDS011;33824;51.600;5.718;2022-08-19T12:30:18;27.48;;;15.38;;
48052;SDS011;33824;51.600;5.718;2022-08-19T12:32:43;21.25;;;14.80;;
48052;SDS011;33824;51.600;5.718;2022-08-19T12:35:09;26.10;;;16.55;;
48052;SDS011;33824;51.600;5.718;2022-08-19T12:37:35;24.73;;;16.85;;
48052;SDS011;33824;51.600;5.718;2022-08-19T12:40:02;24.20;;;16.38;;
48052;SDS011;33824;51.600;5.718;2022-08-19T12:42:28;23.88;;;14.65;;
48052;SDS011;33824;51.600;5.718;2022-08-19T12:44:54;22.98;;;14.07;;
48052;SDS011;33824;51.600;5.718;2022-08-19T12:47:20;24.02;;;15.85;;
48052;SDS011;33824;51.600;5.718;2022-08-19T12:49:46;19.80;;;12.82;;
48052;SDS011;33824;51.600;5.718;2022-08-19T12:52:12;25.50;;;16.33;;
48052;SDS011;33824;51.600;5.718;2022-08-19T12:54:41;21.08;;;13.40;;
48052;SDS011;33824;51.600;5.718;2022-08-19T12:57:08;20.20;;;13.77;;
48052;SDS011;33824;51.600;5.718;2022-08-19T12:59:36;16.60;;;10.25;;
48052;SDS011;33824;51.600;5.718;2022-08-19T13:02:03;16.73;;;10.20;;
48052;SDS011;33824;51.600;5.718;2022-08-19T13:04:31;17.77;;;11.68;;
48052;SDS011;33824;51.600;5.718;2022-08-19T13:06:58;19.50;;;10.75;;
48052;SDS011;33824;51.600;5.718;2022-08-19T13:09:23;20.10;;;11.57;;
48052;SDS011;33824;51.600;5.718;2022-08-19T13:11:50;19.60;;;11.10;;
48052;SDS011;33824;51.600;5.718;2022-08-19T13:14:16;17.65;;;11.27;;
48052;SDS011;33824;51.600;5.718;2022-08-19T13:16:42;19.75;;;11.48;;
48052;SDS011;33824;51.600;5.718;2022-08-19T13:19:07;18.63;;;11.02;;
48052;SDS011;33824;51.600;5.718;2022-08-19T13:21:33;18.23;;;11.23;;
48052;SDS011;33824;51.600;5.718;2022-08-19T13:23:58;19.92;;;11.18;;
48052;SDS011;33824;51.600;5.718;2022-08-19T13:26:24;17.48;;;11.35;;
48052;SDS011;33824;51.600;5.718;2022-08-19T13:28:50;19.00;;;10.65;;
48052;SDS011;33824;51.600;5.718;2022-08-19T13:31:34;17.17;;;10.52;;
48052;SDS011;33824;51.600;5.718;2022-08-19T13:34:26;20.25;;;12.05;;
48052;SDS011;33824;51.600;5.718;2022-08-19T13:36:58;22.33;;;11.98;;
48052;SDS011;33824;51.600;5.718;2022-08-19T13:39:24;17.88;;;12.23;;
48052;SDS011;33824;51.600;5.718;2022-08-19T13:41:49;23.65;;;14.10;;
48052;SDS011;33824;51.600;5.718;2022-08-19T13:44:16;21.10;;;13.23;;
48052;SDS011;33824;51.600;5.718;2022-08-19T13:46:45;21.45;;;13.13;;
48052;SDS011;33824;51.600;5.718;2022-08-19T13:49:12;21.17;;;13.77;;
48052;SDS011;33824;51.600;5.718;2022-08-19T13:51:40;26.88;;;14.90;;
48052;SDS011;33824;51.600;5.718;2022-08-19T13:54:07;22.27;;;12.90;;
48052;SDS011;33824;51.600;5.718;2022-08-19T13:56:33;22.88;;;14.30;;
48052;SDS011;33824;51.600;5.718;2022-08-19T13:59:00;23.27;;;14.43;;
48052;SDS011;33824;51.600;5.718;2022-08-19T14:01:25;20.92;;;14.60;;
48052;SDS011;33824;51.600;5.718;2022-08-19T14:03:51;27.42;;;15.95;;
48052;SDS011;33824;51.600;5.718;2022-08-19T14:06:18;25.02;;;14.50;;
48052;SDS011;33824;51.600;5.718;2022-08-19T14:08:44;20.13;;;13.98;;
48052;SDS011;33824;51.600;5.718;2022-08-19T14:11:10;31.85;;;16.13;;
48052;SDS011;33824;51.600;5.718;2022-08-19T14:13:36;24.63;;;15.65;;
48052;SDS011;33824;51.600;5.718;2022-08-19T14:16:05;26.60;;;14.75;;
48052;SDS011;33824;51.600;5.718;2022-08-19T14:18:34;24.70;;;15.70;;
48052;SDS011;33824;51.600;5.718;2022-08-19T14:21:00;24.92;;;15.95;;
48052;SDS011;33824;51.600;5.718;2022-08-19T14:23:26;30.20;;;16.50;;
48052;SDS011;33824;51.600;5.718;2022-08-19T14:25:51;25.05;;;16.08;;
48052;SDS011;33824;51.600;5.718;2022-08-19T14:28:17;21.30;;;13.82;;
48052;SDS011;33824;51.600;5.718;2022-08-19T14:30:42;23.58;;;13.20;;
48052;SDS011;33824;51.600;5.718;2022-08-19T14:33:09;23.80;;;11.65;;
48052;SDS011;33824;51.600;5.718;2022-08-19T14:35:35;15.63;;;10.13;;
48052;SDS011;33824;51.600;5.718;2022-08-19T14:38:02;16.75;;;10.20;;